Time;durP1;ratioP1;P1;durP2;ratioP2;P2;SDS_P1;SDS_P2;PMS_P1;PMS_P2;Temp;Humidity;BMP_temperature;BMP_pressure;BME280_temperature;BME280_humidity;BME280_pressure;Samples;Min_cycle;Max_cycle;Signal;HPM_P1;HPM_P2
2022/12/02 00:01:04;;;;;;;;;;;5.60;99.90;;;;;;8389567;28;19932;-78
2022/12/02 00:05:09;;;;;;;;;;;5.50;99.90;;;;;;8381307;28;19979;-79
2022/12/02 00:09:17;;;;;;;;;;;5.50;99.90;;;;;;8372113;28;20007;-78
2022/12/02 00:13:20;;;;;;;;;;;5.50;99.90;;;;;;8388017;28;19928;-78
2022/12/02 00:17:23;;;;;;;;;;;5.50;99.90;;;;;;8387477;28;20363;-78
2022/12/02 00:21:24;;;;;;;;;;;5.50;99.90;;;;;;8366829;28;19975;-78
2022/12/02 00:25:26;;;;;;;;;;;5.50;99.90;;;;;;8386829;28;19968;-79
2022/12/02 00:29:28;;;;;;;;;;;5.50;99.90;;;;;;8372044;28;19932;-78
2022/12/02 00:33:30;;;;;;;;;;;5.50;99.90;;;;;;8365308;28;20014;-78
2022/12/02 00:37:31;;;;;;;;;;;5.40;99.90;;;;;;8372219;28;19929;-78
2022/12/02 00:41:33;;;;;;;;;;;5.40;99.90;;;;;;8377600;28;19971;-78
2022/12/02 00:49:55;;;;;;;;;;;5.40;99.90;;;;;;8380716;28;19925;-78
2022/12/02 00:53:57;;;;;;;;;;;5.40;99.90;;;;;;8375625;28;19930;-79
2022/12/02 00:57:58;;;;;;;;;;;5.40;99.90;;;;;;8378957;28;19939;-78
2022/12/02 01:02:00;;;;;;;;;;;5.40;99.90;;;;;;8389512;28;19946;-78
2022/12/02 01:06:02;;;;;;;;;;;5.40;99.90;;;;;;8381471;28;20287;-78
2022/12/02 01:10:04;;;;;;;;;;;5.40;99.90;;;;;;8380663;28;20019;-78
2022/12/02 01:14:06;;;;;;;;;;;5.40;99.90;;;;;;8383409;28;20304;-78
2022/12/02 01:18:07;;;;;;;;;;;5.40;99.90;;;;;;8386811;28;19964;-78
2022/12/02 01:22:09;;;;;;;;;;;5.40;99.90;;;;;;8385640;28;19925;-78
2022/12/02 01:26:11;;;;;;;;;;;5.50;99.90;;;;;;8379680;28;20351;-78
2022/12/02 01:30:13;;;;;;;;;;;5.50;99.90;;;;;;8388273;28;19982;-78
2022/12/02 01:34:14;;;;;;;;;;;5.50;99.90;;;;;;8386701;28;19975;-79
2022/12/02 01:38:16;;;;;;;;;;;5.50;99.90;;;;;;8392264;28;19932;-78
2022/12/02 01:42:17;;;;;;;;;;;5.60;99.90;;;;;;8388383;28;20398;-79
2022/12/02 01:46:19;;;;;;;;;;;5.60;99.90;;;;;;8372846;28;19928;-79
2022/12/02 01:50:21;;;;;;;;;;;5.50;99.90;;;;;;8403490;28;19928;-78
2022/12/02 01:54:23;;;;;;;;;;;5.50;99.90;;;;;;8376274;28;19924;-78
2022/12/02 01:58:26;;;;;;;;;;;5.50;99.90;;;;;;8399986;28;19930;-78
2022/12/02 02:02:28;;;;;;;;;;;5.60;99.90;;;;;;8394940;28;19925;-78
2022/12/02 02:06:31;;;;;;;;;;;5.50;99.90;;;;;;8401580;28;19958;-79
2022/12/02 02:10:33;;;;;;;;;;;5.50;99.90;;;;;;8398746;28;19924;-78
2022/12/02 02:14:35;;;;;;;;;;;5.50;99.90;;;;;;8392490;28;19924;-78
2022/12/02 02:18:36;;;;;;;;;;;5.50;99.90;;;;;;8393626;28;19931;-79
2022/12/02 02:22:47;;;;;;;;;;;5.50;99.90;;;;;;8380088;28;20395;-79
2022/12/02 02:26:49;;;;;;;;;;;5.50;99.90;;;;;;8393662;28;19928;-78
2022/12/02 02:30:52;;;;;;;;;;;5.50;99.90;;;;;;8381050;28;19924;-78
2022/12/02 02:34:54;;;;;;;;;;;5.50;99.90;;;;;;8395767;28;19965;-79
2022/12/02 02:38:56;;;;;;;;;;;5.40;99.90;;;;;;8386636;28;19963;-79
2022/12/02 02:42:59;;;;;;;;;;;5.50;99.90;;;;;;8384163;28;19928;-79
2022/12/02 02:47:00;;;;;;;;;;;5.40;99.90;;;;;;8386875;28;19947;-79
2022/12/02 02:51:02;;;;;;;;;;;5.40;99.90;;;;;;8395342;28;19924;-78
2022/12/02 02:55:05;;;;;;;;;;;5.40;99.90;;;;;;8382579;28;19928;-78
2022/12/02 02:59:11;;;;;;;;;;;5.30;99.90;;;;;;8384938;28;19924;-79
2022/12/02 03:03:14;;;;;;;;;;;5.30;99.90;;;;;;8376366;28;19960;-78
2022/12/02 03:07:16;;;;;;;;;;;5.30;99.90;;;;;;8390164;28;19944;-78
2022/12/02 03:11:18;;;;;;;;;;;5.20;99.90;;;;;;8385943;28;20625;-78
2022/12/02 03:15:24;;;;;;;;;;;5.20;99.90;;;;;;8372084;28;19931;-78
2022/12/02 03:19:26;;;;;;;;;;;5.20;99.90;;;;;;8366753;28;20637;-78
2022/12/02 03:23:29;;;;;;;;;;;5.10;99.90;;;;;;8387271;28;19991;-78
2022/12/02 03:27:31;;;;;;;;;;;5.10;99.90;;;;;;8403257;28;19975;-79
2022/12/02 03:31:33;;;;;;;;;;;5.10;99.90;;;;;;8383802;28;20372;-78
2022/12/02 03:35:34;;;;;;;;;;;5.10;99.90;;;;;;8388640;28;19928;-78
2022/12/02 03:39:36;;;;;;;;;;;5.10;99.90;;;;;;8390095;28;19975;-78
2022/12/02 03:43:38;;;;;;;;;;;5.10;99.90;;;;;;8389639;28;19967;-78
2022/12/02 03:47:40;;;;;;;;;;;5.10;99.90;;;;;;8388147;28;19929;-78
2022/12/02 03:51:41;;;;;;;;;;;5.10;99.90;;;;;;8387643;28;19933;-78
2022/12/02 03:55:43;;;;;;;;;;;5.00;99.90;;;;;;8379781;28;19931;-78
2022/12/02 03:59:45;;;;;;;;;;;5.00;99.90;;;;;;8379636;28;19967;-78
2022/12/02 04:03:47;;;;;;;;;;;5.00;99.90;;;;;;8388075;28;19947;-78
2022/12/02 04:07:48;;;;;;;;;;;5.00;99.90;;;;;;8396123;28;20380;-78
2022/12/02 04:11:50;;;;;;;;;;;4.90;99.90;;;;;;8380349;28;19940;-79
2022/12/02 04:15:52;;;;;;;;;;;5.00;99.90;;;;;;8383530;28;19924;-78
2022/12/02 04:19:54;;;;;;;;;;;5.00;99.90;;;;;;8384392;28;19931;-78
2022/12/02 04:23:56;;;;;;;;;;;5.00;99.90;;;;;;8389055;28;19932;-78
2022/12/02 04:27:57;;;;;;;;;;;5.00;99.90;;;;;;8389844;28;19928;-79
2022/12/02 04:31:59;;;;;;;;;;;5.00;99.90;;;;;;8355678;28;21331;-78
2022/12/02 04:36:01;;;;;;;;;;;5.00;99.90;;;;;;8367432;28;19924;-78
2022/12/02 04:40:03;;;;;;;;;;;5.00;99.90;;;;;;8368863;28;19938;-78
2022/12/02 04:44:04;;;;;;;;;;;5.00;99.90;;;;;;8396351;28;19932;-78
2022/12/02 04:48:06;;;;;;;;;;;5.00;99.90;;;;;;8394181;28;19925;-78
2022/12/02 04:52:07;;;;;;;;;;;5.00;99.90;;;;;;8384062;28;19970;-79
2022/12/02 04:56:09;;;;;;;;;;;5.00;99.90;;;;;;8382044;28;19935;-78
2022/12/02 05:00:11;;;;;;;;;;;5.00;99.90;;;;;;8393779;28;20795;-78
2022/12/02 05:04:12;;;;;;;;;;;5.00;99.90;;;;;;8370902;28;20027;-78
2022/12/02 05:08:14;;;;;;;;;;;4.90;99.90;;;;;;8390272;28;20021;-79
2022/12/02 05:12:16;;;;;;;;;;;4.90;99.90;;;;;;8381494;28;20291;-79
2022/12/02 05:16:17;;;;;;;;;;;4.90;99.90;;;;;;8384091;28;19935;-78
2022/12/02 05:20:21;;;;;;;;;;;4.90;99.90;;;;;;8388936;28;20393;-78
2022/12/02 05:24:22;;;;;;;;;;;4.90;99.90;;;;;;8390276;28;19934;-79
2022/12/02 05:28:24;;;;;;;;;;;4.90;99.90;;;;;;8387336;28;19935;-78
2022/12/02 05:32:26;;;;;;;;;;;4.90;99.90;;;;;;8366204;28;19932;-78
2022/12/02 05:36:27;;;;;;;;;;;4.90;99.90;;;;;;8386002;28;19935;-78
2022/12/02 05:40:29;;;;;;;;;;;4.90;99.90;;;;;;8380332;28;19925;-79
2022/12/02 05:44:32;;;;;;;;;;;4.90;99.90;;;;;;8383262;28;20035;-79
2022/12/02 05:48:39;;;;;;;;;;;4.90;99.90;;;;;;8378501;28;19925;-78
2022/12/02 05:52:42;;;;;;;;;;;4.90;99.90;;;;;;8375824;28;19935;-79
2022/12/02 05:56:44;;;;;;;;;;;4.90;99.90;;;;;;8383516;28;20376;-78
2022/12/02 06:00:53;;;;;;;;;;;4.90;99.90;;;;;;8383040;28;19939;-78
2022/12/02 06:04:55;;;;;;;;;;;4.80;99.90;;;;;;8370127;28;19930;-78
2022/12/02 06:08:56;;;;;;;;;;;4.70;99.90;;;;;;8367614;28;19940;-78
2022/12/02 06:13:00;;;;;;;;;;;4.70;99.90;;;;;;8382449;28;19993;-78
2022/12/02 06:17:09;;;;;;;;;;;4.70;99.90;;;;;;8382634;28;19924;-78
2022/12/02 06:21:12;;;;;;;;;;;4.60;99.90;;;;;;8393963;28;20303;-79
2022/12/02 06:25:25;;;;;;;;;;;4.60;99.90;;;;;;8394722;28;19934;-78
2022/12/02 06:29:28;;;;;;;;;;;4.60;99.90;;;;;;8391795;28;20291;-78
2022/12/02 06:33:31;;;;;;;;;;;4.60;99.90;;;;;;8382187;28;20015;-78
2022/12/02 06:37:33;;;;;;;;;;;4.50;99.90;;;;;;8375950;28;19940;-78
2022/12/02 06:41:36;;;;;;;;;;;4.60;99.90;;;;;;8409706;28;20370;-79
2022/12/02 06:45:37;;;;;;;;;;;4.50;99.90;;;;;;8387379;28;20368;-78
2022/12/02 06:49:39;;;;;;;;;;;4.60;99.90;;;;;;8390140;28;19928;-78
2022/12/02 06:53:41;;;;;;;;;;;4.50;99.90;;;;;;8374906;28;19928;-79
2022/12/02 06:57:43;;;;;;;;;;;4.50;99.90;;;;;;8403455;28;19936;-79
2022/12/02 07:01:44;;;;;;;;;;;4.50;99.90;;;;;;8377891;28;19931;-78
2022/12/02 07:05:46;;;;;;;;;;;4.50;99.90;;;;;;8389033;28;19977;-78
2022/12/02 07:09:51;;;;;;;;;;;4.50;99.90;;;;;;8396584;28;19928;-78
2022/12/02 07:13:53;;;;;;;;;;;4.50;99.90;;;;;;8383146;28;19983;-79
2022/12/02 07:18:14;;;;;;;;;;;4.50;99.90;;;;;;8397280;28;19933;-78
2022/12/02 07:22:18;;;;;;;;;;;4.40;99.90;;;;;;8394258;28;19930;-78
2022/12/02 07:26:19;;;;;;;;;;;4.40;99.90;;;;;;8385603;28;19968;-78
2022/12/02 07:30:23;;;;;;;;;;;4.40;99.90;;;;;;8379918;28;19934;-78
2022/12/02 07:34:25;;;;;;;;;;;4.40;99.90;;;;;;8392757;28;20609;-79
2022/12/02 07:38:31;;;;;;;;;;;4.40;99.90;;;;;;8391659;28;19929;-78
2022/12/02 07:42:53;;;;;;;;;;;4.40;99.90;;;;;;8374352;28;19950;-78
2022/12/02 07:46:54;;;;;;;;;;;4.30;99.90;;;;;;8395543;28;19973;-79
2022/12/02 07:50:56;;;;;;;;;;;4.30;99.90;;;;;;8394748;28;20502;-78
2022/12/02 07:54:57;;;;;;;;;;;4.30;99.90;;;;;;8390284;28;19928;-78
2022/12/02 07:59:01;;;;;;;;;;;4.30;99.90;;;;;;8377742;28;20240;-78
2022/12/02 08:03:12;;;;;;;;;;;4.30;99.90;;;;;;8392320;28;19924;-78
2022/12/02 08:07:14;;;;;;;;;;;4.30;99.90;;;;;;8394808;28;20325;-78
2022/12/02 08:11:15;;;;;;;;;;;4.20;99.90;;;;;;8389725;28;19928;-79
2022/12/02 08:15:17;;;;;;;;;;;4.30;99.90;;;;;;8395580;28;19931;-79
2022/12/02 08:19:19;;;;;;;;;;;4.30;99.90;;;;;;8390161;28;19950;-78
2022/12/02 08:23:20;;;;;;;;;;;4.30;99.90;;;;;;8391552;28;19967;-78
2022/12/02 08:27:22;;;;;;;;;;;4.30;99.90;;;;;;8389907;28;19937;-78
2022/12/02 08:31:24;;;;;;;;;;;4.30;99.90;;;;;;8391738;28;19925;-78
2022/12/02 08:35:26;;;;;;;;;;;4.40;99.90;;;;;;8395619;28;19952;-78
2022/12/02 08:39:27;;;;;;;;;;;4.40;99.90;;;;;;8384115;28;20396;-79
2022/12/02 08:43:29;;;;;;;;;;;4.40;99.90;;;;;;8372100;28;19931;-78
2022/12/02 08:47:31;;;;;;;;;;;4.40;99.90;;;;;;8391462;28;19938;-78
2022/12/02 08:51:33;;;;;;;;;;;4.40;99.90;;;;;;8387437;28;20019;-78
2022/12/02 08:55:34;;;;;;;;;;;4.40;99.90;;;;;;8367592;28;20023;-79
2022/12/02 08:59:36;;;;;;;;;;;4.40;99.90;;;;;;8386899;28;19924;-78
2022/12/02 09:03:38;;;;;;;;;;;4.40;99.90;;;;;;8373982;28;20393;-78
2022/12/02 09:07:39;;;;;;;;;;;4.40;99.90;;;;;;8387164;28;19935;-79
2022/12/02 09:11:41;;;;;;;;;;;4.40;99.90;;;;;;8396241;28;19925;-78
2022/12/02 09:15:43;;;;;;;;;;;4.40;99.90;;;;;;8393124;28;19931;-78
2022/12/02 09:19:45;;;;;;;;;;;4.40;99.90;;;;;;8391763;28;19925;-79
2022/12/02 09:23:47;;;;;;;;;;;4.50;99.90;;;;;;8388873;28;19974;-78
2022/12/02 09:27:51;;;;;;;;;;;4.50;99.90;;;;;;8387039;28;19932;-78
2022/12/02 09:31:52;;;;;;;;;;;4.50;99.90;;;;;;8372936;28;19931;-78
2022/12/02 09:35:54;;;;;;;;;;;4.50;99.90;;;;;;8375912;28;20379;-78
2022/12/02 09:39:59;;;;;;;;;;;4.60;99.90;;;;;;8389432;28;19924;-79
2022/12/02 09:44:00;;;;;;;;;;;4.60;99.90;;;;;;8386748;28;19935;-79
2022/12/02 09:48:02;;;;;;;;;;;4.60;99.90;;;;;;8389659;28;19931;-78
2022/12/02 09:52:05;;;;;;;;;;;4.60;99.90;;;;;;8389153;28;19924;-79
2022/12/02 09:56:13;;;;;;;;;;;4.70;99.90;;;;;;8376183;28;19928;-79
2022/12/02 10:00:16;;;;;;;;;;;4.80;99.90;;;;;;8395225;28;19931;-79
2022/12/02 10:04:20;;;;;;;;;;;4.80;99.90;;;;;;8394614;28;19924;-79
2022/12/02 10:08:26;;;;;;;;;;;4.90;99.90;;;;;;8407200;28;19928;-79
2022/12/02 10:12:27;;;;;;;;;;;4.90;99.90;;;;;;8392587;28;20280;-79
2022/12/02 10:16:29;;;;;;;;;;;4.90;99.90;;;;;;8399769;28;19928;-79
2022/12/02 10:20:31;;;;;;;;;;;5.00;99.90;;;;;;8393059;28;19935;-79
2022/12/02 10:24:36;;;;;;;;;;;5.00;99.90;;;;;;8375739;28;19928;-78
2022/12/02 10:28:39;;;;;;;;;;;5.10;99.90;;;;;;8391866;28;20874;-78
2022/12/02 10:32:41;;;;;;;;;;;5.10;99.90;;;;;;8391647;28;19924;-79
2022/12/02 10:36:42;;;;;;;;;;;5.00;99.90;;;;;;8373525;28;19928;-79
2022/12/02 10:41:09;;;;;;;;;;;5.00;99.90;;;;;;8391907;28;19924;-79
2022/12/02 10:45:22;;;;;;;;;;;5.00;99.90;;;;;;8397596;28;20067;-79
2022/12/02 10:49:28;;;;;;;;;;;5.00;99.90;;;;;;8377974;28;19924;-79
2022/12/02 10:53:33;;;;;;;;;;;4.90;99.90;;;;;;8393282;28;19939;-79
2022/12/02 10:57:34;;;;;;;;;;;4.80;99.90;;;;;;8367598;28;20265;-79
2022/12/02 11:01:37;;;;;;;;;;;4.80;99.90;;;;;;8365106;28;21298;-78
2022/12/02 11:05:39;;;;;;;;;;;4.80;99.90;;;;;;8363959;28;20650;-78
2022/12/02 11:09:46;;;;;;;;;;;4.80;99.90;;;;;;8374367;28;19971;-78
2022/12/02 11:13:50;;;;;;;;;;;4.90;99.90;;;;;;8350663;28;19925;-78
2022/12/02 11:17:53;;;;;;;;;;;4.80;99.90;;;;;;8370631;28;20035;-77
2022/12/02 11:21:55;;;;;;;;;;;4.80;99.90;;;;;;8366596;28;19970;-78
2022/12/02 11:26:00;;;;;;;;;;;4.80;99.90;;;;;;8356947;28;19933;-78
2022/12/02 11:30:31;;;;;;;;;;;4.80;99.90;;;;;;8367430;28;19928;-79
2022/12/02 11:34:41;;;;;;;;;;;4.80;99.90;;;;;;8363404;28;19944;-78
2022/12/02 11:39:07;;;;;;;;;;;4.80;99.90;;;;;;8371423;28;19928;-79
2022/12/02 11:43:41;;;;;;;;;;;4.80;99.90;;;;;;8366384;28;19925;-79
2022/12/02 11:47:55;;;;;;;;;;;4.70;99.90;;;;;;8347458;28;19972;-79
2022/12/02 11:52:02;;;;;;;;;;;4.70;99.90;;;;;;8382054;28;19931;-79
2022/12/02 11:56:10;;;;;;;;;;;4.80;99.90;;;;;;8365866;28;19924;-79
2022/12/02 12:00:43;;;;;;;;;;;4.80;99.90;;;;;;8360774;28;20430;-78
2022/12/02 12:04:45;;;;;;;;;;;4.80;99.90;;;;;;8360073;28;20007;-79
2022/12/02 12:08:52;;;;;;;;;;;4.70;99.90;;;;;;8367629;28;19972;-79
2022/12/02 12:13:13;;;;;;;;;;;4.60;99.90;;;;;;8374197;28;19951;-78
2022/12/02 12:17:16;;;;;;;;;;;4.60;99.90;;;;;;8360008;28;20311;-78
2022/12/02 12:21:29;;;;;;;;;;;4.50;99.90;;;;;;8369275;28;19938;-78
2022/12/02 12:25:40;;;;;;;;;;;4.50;99.90;;;;;;8361974;28;20191;-79
2022/12/02 12:29:42;;;;;;;;;;;4.40;99.90;;;;;;8364727;28;19956;-79
2022/12/02 12:33:44;;;;;;;;;;;4.40;99.90;;;;;;8357232;28;20023;-79
2022/12/02 12:37:45;;;;;;;;;;;4.40;99.90;;;;;;8360725;28;20329;-79
2022/12/02 12:41:47;;;;;;;;;;;4.40;99.90;;;;;;8360335;28;19982;-79
2022/12/02 12:46:00;;;;;;;;;;;4.30;99.90;;;;;;8360707;28;20090;-79
2022/12/02 12:50:02;;;;;;;;;;;4.30;99.90;;;;;;8359791;28;19942;-80
2022/12/02 12:54:04;;;;;;;;;;;4.40;99.90;;;;;;8351979;28;20261;-79
2022/12/02 12:58:05;;;;;;;;;;;4.40;99.90;;;;;;8359713;28;20439;-79
2022/12/02 13:02:07;;;;;;;;;;;4.50;99.90;;;;;;8347944;28;20024;-78
2022/12/02 13:06:09;;;;;;;;;;;4.60;99.90;;;;;;8359816;28;20012;-79
2022/12/02 13:10:11;;;;;;;;;;;4.70;99.90;;;;;;8362914;28;20320;-79
2022/12/02 13:14:12;;;;;;;;;;;4.80;99.90;;;;;;8342186;28;20020;-79
2022/12/02 13:18:14;;;;;;;;;;;4.80;99.90;;;;;;8363270;28;20281;-78
2022/12/02 13:22:15;;;;;;;;;;;4.80;99.90;;;;;;8361840;28;19928;-79
2022/12/02 13:26:17;;;;;;;;;;;4.80;99.90;;;;;;8360296;28;19979;-79
2022/12/02 13:30:21;;;;;;;;;;;4.90;99.90;;;;;;8361688;28;19924;-79
2022/12/02 13:34:23;;;;;;;;;;;4.90;99.90;;;;;;8346062;28;19950;-80
2022/12/02 13:38:24;;;;;;;;;;;4.90;99.90;;;;;;8344563;28;19960;-79
2022/12/02 13:42:26;;;;;;;;;;;4.80;99.90;;;;;;8359575;28;19924;-80
2022/12/02 13:46:28;;;;;;;;;;;4.80;99.90;;;;;;8359126;28;20406;-78
2022/12/02 13:50:30;;;;;;;;;;;4.70;99.90;;;;;;8357883;28;19939;-79
2022/12/02 13:54:31;;;;;;;;;;;4.70;99.90;;;;;;8355522;28;19932;-79
2022/12/02 13:58:33;;;;;;;;;;;4.70;99.90;;;;;;8342564;28;20253;-79
2022/12/02 14:02:35;;;;;;;;;;;4.70;99.90;;;;;;8349430;28;19933;-79
2022/12/02 14:06:36;;;;;;;;;;;4.70;99.90;;;;;;8372838;28;19952;-79
2022/12/02 14:10:38;;;;;;;;;;;4.60;99.90;;;;;;8363350;28;20578;-80
2022/12/02 14:14:40;;;;;;;;;;;4.60;99.90;;;;;;8368049;28;19924;-79
2022/12/02 14:18:41;;;;;;;;;;;4.60;99.90;;;;;;8367197;28;20243;-79
2022/12/02 14:22:43;;;;;;;;;;;4.60;99.90;;;;;;8355379;28;20399;-79
2022/12/02 14:26:45;;;;;;;;;;;4.60;99.90;;;;;;8340626;28;19925;-79
2022/12/02 14:30:46;;;;;;;;;;;4.60;99.90;;;;;;8358170;28;20298;-79
2022/12/02 14:34:48;;;;;;;;;;;4.50;99.90;;;;;;8358520;28;19924;-79
2022/12/02 14:38:50;;;;;;;;;;;4.40;99.90;;;;;;8359180;28;20423;-79
2022/12/02 14:42:51;;;;;;;;;;;4.40;99.90;;;;;;8360902;28;19933;-79
2022/12/02 14:46:53;;;;;;;;;;;4.30;99.90;;;;;;8362395;28;19924;-79
2022/12/02 14:50:54;;;;;;;;;;;4.30;99.90;;;;;;8360768;28;20002;-79
2022/12/02 14:54:56;;;;;;;;;;;4.30;99.90;;;;;;8361053;28;19935;-80
2022/12/02 14:58:58;;;;;;;;;;;4.30;99.90;;;;;;8337955;28;20516;-78
2022/12/02 15:02:59;;;;;;;;;;;4.20;99.90;;;;;;8345966;28;19966;-79
2022/12/02 15:07:01;;;;;;;;;;;4.10;99.90;;;;;;8346151;28;19964;-79
2022/12/02 15:11:03;;;;;;;;;;;4.20;99.90;;;;;;8365394;28;19929;-79
2022/12/02 15:15:05;;;;;;;;;;;4.10;99.90;;;;;;8364372;28;20019;-79
2022/12/02 15:19:26;;;;;;;;;;;4.10;99.90;;;;;;8338772;28;19924;-79
2022/12/02 15:23:28;;;;;;;;;;;4.00;99.90;;;;;;8360950;28;19929;-80
2022/12/02 15:27:30;;;;;;;;;;;4.00;99.90;;;;;;8355064;28;19928;-80
2022/12/02 15:31:32;;;;;;;;;;;4.00;99.90;;;;;;8359346;28;19928;-78
2022/12/02 15:35:34;;;;;;;;;;;4.00;99.90;;;;;;8361705;28;20339;-79
2022/12/02 15:39:36;;;;;;;;;;;4.00;99.90;;;;;;8339075;28;19940;-78
2022/12/02 15:43:37;;;;;;;;;;;3.90;99.90;;;;;;8371770;28;20326;-78
2022/12/02 15:47:39;;;;;;;;;;;3.90;99.90;;;;;;8363175;28;19945;-79
2022/12/02 15:51:40;;;;;;;;;;;3.80;99.90;;;;;;8361255;28;20008;-79
2022/12/02 15:55:42;;;;;;;;;;;3.80;99.90;;;;;;8362712;28;19979;-79
2022/12/02 15:59:44;;;;;;;;;;;3.80;99.90;;;;;;8363050;28;20239;-79
2022/12/02 16:03:45;;;;;;;;;;;3.80;99.90;;;;;;8346592;28;19954;-79
2022/12/02 16:07:47;;;;;;;;;;;3.80;99.90;;;;;;8352078;28;20015;-78
2022/12/02 16:11:49;;;;;;;;;;;3.80;99.90;;;;;;8359092;28;19931;-78
2022/12/02 16:15:50;;;;;;;;;;;3.80;99.90;;;;;;8364325;28;20420;-79
2022/12/02 16:19:52;;;;;;;;;;;3.80;99.90;;;;;;8364822;28;19935;-79
2022/12/02 16:23:54;;;;;;;;;;;3.80;99.90;;;;;;8361221;28;19967;-78
2022/12/02 16:27:55;;;;;;;;;;;3.80;99.90;;;;;;8364568;28;20422;-78
2022/12/02 16:31:57;;;;;;;;;;;3.70;99.90;;;;;;8354348;28;19947;-79
2022/12/02 16:35:59;;;;;;;;;;;3.70;99.90;;;;;;8344667;28;19935;-78
2022/12/02 16:40:00;;;;;;;;;;;3.70;99.90;;;;;;8369978;28;20006;-78
2022/12/02 16:44:02;;;;;;;;;;;3.70;99.90;;;;;;8359652;28;19924;-79
2022/12/02 16:48:04;;;;;;;;;;;3.70;99.90;;;;;;8361946;28;19939;-79
2022/12/02 16:52:05;;;;;;;;;;;3.60;99.90;;;;;;8361128;28;19925;-79
2022/12/02 16:56:07;;;;;;;;;;;3.70;99.90;;;;;;8354799;28;20391;-79
2022/12/02 17:00:09;;;;;;;;;;;3.60;99.90;;;;;;8358123;28;20272;-78
2022/12/02 17:04:10;;;;;;;;;;;3.70;99.90;;;;;;8365460;28;19932;-78
2022/12/02 17:08:12;;;;;;;;;;;3.70;99.90;;;;;;8355437;28;20022;-78
2022/12/02 17:12:14;;;;;;;;;;;3.70;99.90;;;;;;8365497;28;20096;-79
2022/12/02 17:16:16;;;;;;;;;;;3.60;99.90;;;;;;8374176;28;19932;-79
2022/12/02 17:20:17;;;;;;;;;;;3.70;99.90;;;;;;8372779;28;19939;-79
2022/12/02 17:24:19;;;;;;;;;;;3.70;99.90;;;;;;8365963;28;19928;-79
2022/12/02 17:28:21;;;;;;;;;;;3.70;99.90;;;;;;8350787;28;19932;-79
2022/12/02 17:32:23;;;;;;;;;;;3.70;99.90;;;;;;8357658;28;19940;-79
2022/12/02 17:36:26;;;;;;;;;;;3.70;99.90;;;;;;8353736;28;19929;-79
2022/12/02 17:40:28;;;;;;;;;;;3.70;99.90;;;;;;8362205;28;20419;-78
2022/12/02 17:44:29;;;;;;;;;;;3.70;99.90;;;;;;8359940;28;20410;-79
2022/12/02 17:48:31;;;;;;;;;;;3.70;99.90;;;;;;8364098;28;19955;-79
2022/12/02 17:52:32;;;;;;;;;;;3.70;99.90;;;;;;8364706;28;19924;-79
2022/12/02 17:56:34;;;;;;;;;;;3.70;99.90;;;;;;8358907;28;20011;-79
2022/12/02 18:00:36;;;;;;;;;;;3.70;99.90;;;;;;8361503;28;19952;-79
2022/12/02 18:04:42;;;;;;;;;;;3.70;99.90;;;;;;8385875;28;19939;-79
2022/12/02 18:08:44;;;;;;;;;;;3.70;99.90;;;;;;8380590;28;19939;-79
2022/12/02 18:12:45;;;;;;;;;;;3.70;99.90;;;;;;8339227;28;19928;-79
2022/12/02 18:16:47;;;;;;;;;;;3.70;99.90;;;;;;8366037;28;20326;-79
2022/12/02 18:20:49;;;;;;;;;;;3.70;99.90;;;;;;8362474;28;20350;-79
2022/12/02 18:24:50;;;;;;;;;;;3.70;99.90;;;;;;8365545;28;19975;-78
2022/12/02 18:28:53;;;;;;;;;;;3.70;99.90;;;;;;8359491;28;19940;-79
2022/12/02 18:32:54;;;;;;;;;;;3.70;99.90;;;;;;8362261;28;19939;-79
2022/12/02 18:36:56;;;;;;;;;;;3.70;99.90;;;;;;8374951;28;19924;-79
2022/12/02 18:40:57;;;;;;;;;;;3.70;99.90;;;;;;8366827;28;19933;-79
2022/12/02 18:44:59;;;;;;;;;;;3.70;99.90;;;;;;8362483;28;20049;-78
2022/12/02 18:49:01;;;;;;;;;;;3.70;99.90;;;;;;8367370;28;20507;-78
2022/12/02 18:53:03;;;;;;;;;;;3.70;99.90;;;;;;8371185;28;24223;-78
2022/12/02 18:57:05;;;;;;;;;;;3.60;99.90;;;;;;8359484;28;19931;-78
2022/12/02 19:01:06;;;;;;;;;;;3.60;99.90;;;;;;8368066;28;20501;-78
2022/12/02 19:05:08;;;;;;;;;;;3.60;99.90;;;;;;8361471;28;19928;-79
2022/12/02 19:09:10;;;;;;;;;;;3.60;99.90;;;;;;8346339;28;19931;-78
2022/12/02 19:13:12;;;;;;;;;;;3.60;99.90;;;;;;8359422;28;19925;-78
2022/12/02 19:17:13;;;;;;;;;;;3.60;99.90;;;;;;8349848;28;19987;-79
2022/12/02 19:21:15;;;;;;;;;;;3.60;99.90;;;;;;8354382;28;20682;-79
2022/12/02 19:25:27;;;;;;;;;;;3.60;99.90;;;;;;8356681;28;19928;-78
2022/12/02 19:29:29;;;;;;;;;;;3.60;99.90;;;;;;8342378;28;19924;-78
2022/12/02 19:33:30;;;;;;;;;;;3.60;99.90;;;;;;8360822;28;19989;-79
2022/12/02 19:37:32;;;;;;;;;;;3.60;99.90;;;;;;8363613;28;19939;-79
2022/12/02 19:41:34;;;;;;;;;;;3.60;99.90;;;;;;8356656;28;19925;-79
2022/12/02 19:45:36;;;;;;;;;;;3.70;99.90;;;;;;8340117;28;19928;-78
2022/12/02 19:49:37;;;;;;;;;;;3.70;99.90;;;;;;8363001;28;19929;-79
2022/12/02 19:53:39;;;;;;;;;;;3.70;99.90;;;;;;8342998;28;19996;-79
2022/12/02 19:57:41;;;;;;;;;;;3.70;99.90;;;;;;8346600;28;19939;-79
2022/12/02 20:01:42;;;;;;;;;;;3.70;99.90;;;;;;8360484;28;20011;-79
2022/12/02 20:05:44;;;;;;;;;;;3.60;99.90;;;;;;8359285;28;20288;-79
2022/12/02 20:09:46;;;;;;;;;;;3.60;99.90;;;;;;8359582;28;19928;-78
2022/12/02 20:13:47;;;;;;;;;;;3.60;99.90;;;;;;8361363;28;19943;-78
2022/12/02 20:28:09;;;;;;;;;;;3.40;99.90;;;;;;8357420;28;19920;-79
2022/12/02 20:32:12;;;;;;;;;;;3.40;99.90;;;;;;8355535;28;19933;-79
2022/12/02 20:36:13;;;;;;;;;;;3.40;99.90;;;;;;8363895;28;19935;-79
2022/12/02 20:40:16;;;;;;;;;;;3.40;99.90;;;;;;8360792;28;19932;-78
2022/12/02 20:44:19;;;;;;;;;;;3.40;99.90;;;;;;8362494;28;19939;-78
2022/12/02 20:48:20;;;;;;;;;;;3.40;99.90;;;;;;8346037;28;19994;-79
2022/12/02 20:52:22;;;;;;;;;;;3.40;99.90;;;;;;8361469;28;20214;-79
2022/12/02 20:56:24;;;;;;;;;;;3.40;99.90;;;;;;8364544;28;20624;-79
2022/12/02 21:00:25;;;;;;;;;;;3.40;99.90;;;;;;8362187;28;20311;-79
2022/12/02 21:04:27;;;;;;;;;;;3.40;99.90;;;;;;8372499;28;19978;-78
2022/12/02 21:08:29;;;;;;;;;;;3.40;99.90;;;;;;8360494;28;20222;-78
2022/12/02 21:12:31;;;;;;;;;;;3.40;99.90;;;;;;8375960;28;20398;-79
2022/12/02 21:16:32;;;;;;;;;;;3.40;99.90;;;;;;8363416;28;20287;-79
2022/12/02 21:20:34;;;;;;;;;;;3.40;99.90;;;;;;8360794;28;19932;-78
2022/12/02 21:24:36;;;;;;;;;;;3.40;99.90;;;;;;8359128;28;19943;-79
2022/12/02 21:28:37;;;;;;;;;;;3.40;99.90;;;;;;8372500;28;19972;-79
2022/12/02 21:42:47;;;;;;;;;;;3.40;99.90;;;;;;8360106;28;19967;-79
2022/12/02 21:46:48;;;;;;;;;;;3.30;99.90;;;;;;8359329;28;20024;-79
2022/12/02 21:50:50;;;;;;;;;;;3.30;99.90;;;;;;8363662;28;20308;-79
2022/12/02 21:54:51;;;;;;;;;;;3.30;99.90;;;;;;8366614;28;19935;-79
2022/12/02 21:58:54;;;;;;;;;;;3.30;99.90;;;;;;8365714;28;19964;-79
2022/12/02 22:02:55;;;;;;;;;;;3.40;99.90;;;;;;8383913;28;20568;-79
2022/12/02 22:07:39;;;;;;;;;;;3.30;99.90;;;;;;8391052;28;20967;-79
2022/12/02 22:11:19;;;;;;;;;;;3.30;99.90;;;;;;8394469;28;19935;-79
2022/12/02 22:15:21;;;;;;;;;;;3.30;99.90;;;;;;8400528;28;19959;-79
2022/12/02 22:19:22;;;;;;;;;;;3.30;99.90;;;;;;8392735;28;20401;-79
2022/12/02 22:23:24;;;;;;;;;;;3.20;99.90;;;;;;8398685;28;19942;-78
2022/12/02 22:27:25;;;;;;;;;;;3.20;99.90;;;;;;8399143;28;19932;-78
2022/12/02 22:31:27;;;;;;;;;;;3.30;99.90;;;;;;8381804;28;20663;-79
2022/12/02 22:35:29;;;;;;;;;;;3.20;99.90;;;;;;8397554;28;20345;-79
2022/12/02 22:39:30;;;;;;;;;;;3.20;99.90;;;;;;8389595;28;20016;-79
2022/12/02 22:43:32;;;;;;;;;;;3.30;99.90;;;;;;8395811;28;20402;-79
2022/12/02 22:47:33;;;;;;;;;;;3.20;99.90;;;;;;8392037;28;19987;-78
2022/12/02 22:51:35;;;;;;;;;;;3.30;99.90;;;;;;8394735;28;19929;-78
2022/12/02 22:55:37;;;;;;;;;;;3.20;99.90;;;;;;8394680;28;19971;-79
2022/12/02 22:59:38;;;;;;;;;;;3.30;99.90;;;;;;8374154;28;19940;-78
2022/12/02 23:03:40;;;;;;;;;;;3.30;99.90;;;;;;8389994;28;19939;-78
2022/12/02 23:07:42;;;;;;;;;;;3.20;99.90;;;;;;8386451;28;19924;-79
2022/12/02 23:11:43;;;;;;;;;;;3.30;99.90;;;;;;8392922;28;19924;-79
2022/12/02 23:15:45;;;;;;;;;;;3.30;99.90;;;;;;8393876;28;20375;-78
2022/12/02 23:19:46;;;;;;;;;;;3.30;99.90;;;;;;8370887;28;20003;-79
2022/12/02 23:23:48;;;;;;;;;;;3.30;99.90;;;;;;8392785;28;19928;-79
2022/12/02 23:27:50;;;;;;;;;;;3.30;99.90;;;;;;8401700;28;19929;-79
2022/12/02 23:31:52;;;;;;;;;;;3.30;99.90;;;;;;8388032;28;20367;-79
2022/12/02 23:35:53;;;;;;;;;;;3.30;99.90;;;;;;8368903;28;19946;-79
2022/12/02 23:39:55;;;;;;;;;;;3.30;99.90;;;;;;8392236;28;19972;-79
2022/12/02 23:43:56;;;;;;;;;;;3.30;99.90;;;;;;8400947;28;19970;-79
2022/12/02 23:47:58;;;;;;;;;;;3.30;99.90;;;;;;8394065;28;19931;-79
2022/12/02 23:52:00;;;;;;;;;;;3.30;99.90;;;;;;8393946;28;20287;-79
2022/12/02 23:56:01;;;;;;;;;;;3.20;99.90;;;;;;8392970;28;19925;-79
